Jackpot Winner Domino

Jackpot hanya dapat di beli di awal sebelum periode tersebut berjalan dan jika berhasil maka anda dapat melihat di sisi kiri bawah atau kiri atas akan terdapat notifikasi bahwa jackpot anda berhasil di beli.

Jika anda membeli jackpot di tengah permainan maka pembelian jackpot akan berlaku untuk periode selanjutnya.

Ikutilah global jackpot yang tersedia di system kami, dengan system jackpot terbaru dan pertama di indonesia, anda dapat membeli jackpot dengan harga 100 rupiah saja dan menangkan hadiahnya hingga puluhan juta rupiah.

Jackpot bukanlah suatu keharusan untuk dibeli, namun kami memberikan suatu fitur tambahan untuk member tercinta dari www.nagabetasia.co.

Terdapat tiga pilihan harga jackpot yang bisa anda beli yaitu :100,500 dan 1000 rupiah.

Hadiah dari Multi jackpot system www.nagabetasia.co

  1. Murni Kecil x 50 harga jackpot yang anda beli.
      (contoH:anda membeli 1000 maka:1000 X 50 = 50.000)
  2. Murni Besar x 50 harga jackpot yang anda beli
      (contoH:anda membeli 1000 maka:1000 X 50 = 50.000)
  3. BALAK x 100 harga jackpot yang anda beli
      (contoH:anda membeli 1000 maka:1000 X 100 = 100.000)
  4. ENAM DEWA x 6666 harga jackpot yang anda beli
      (contoH:anda membeli 1000 maka:1000 X 6666 = 6.666.000)

Demikian adalah penjelasan dari Multi Jackpot www.nagabetasia.co terima kasih dan selamat bermain salam hoki dari kami


Note: Untuk mendapatkan jackpot di satu periode, pemain harus menyelesaikan permainan di periode tersebut, minimal 2 pemain. Jika semua pemain 'fold' jackpot tidak akan diturunkan.


Jackpot Winner

TOP ENAM DEWA
No. Tanggal Nama Price Win
1 21/01 13:16 PAPAHFIRAH murni enam 3,333,000
2 21/01 12:05 KOCLOK87 murni enam 666,600
3 21/01 05:36 ACCCELL_11 murni enam 666,600
4 21/01 01:38 SIKEONG87 murni enam 666,600
5 21/01 01:27 SAINSUN murni enam 3,333,000
TOP BALAK
No. Tanggal Nama Price Win
1 21/01 13:18 JMK10 balak 100,000
2 21/01 13:16 ANACONDA22 balak 50,000
3 21/01 13:08 JAKET123 balak 50,000
4 21/01 13:07 DWISESWO balak 100,000
5 21/01 13:01 NURLELLA balak 10,000
LATEST JACKPOT
No. Tanggal Nama Price Win
1 21/01 13:18 MAIDAN36 murni besar 25,000
2 21/01 13:18 JMK10 balak 100,000
3 21/01 13:17 ADMAITU95 murni kecil 50,000
4 21/01 13:17 JIN84 murni besar 5,000
5 21/01 13:17 KI_38 murni kecil 50,000
6 21/01 13:16 DWISESWO murni kecil 50,000
7 21/01 13:16 PAPAHFIRAH murni enam 3,333,000
8 21/01 13:16 ANACONDA22 balak 50,000
9 21/01 13:16 MUJAHIDIN1 murni besar 5,000
10 21/01 13:15 BERKAH6666 murni kecil 25,000
11 21/01 13:14 TOAST24 murni kecil 50,000
12 21/01 13:14 V1KY005 murni besar 50,000
13 21/01 13:14 BANGTAWES murni kecil 25,000
14 21/01 13:14 O11B9TPF7W murni besar 50,000
15 21/01 13:14 ZAEY_77 lucky99 50,000
16 21/01 13:13 RESSS08 murni kecil 25,000
17 21/01 13:12 MANGGA2PAK murni besar 5,000
18 21/01 13:11 HOCKYY12 murni besar 25,000
19 21/01 13:09 MANTAP_121 murni besar 25,000
20 21/01 13:09 TEMPALO murni besar 25,000
21 21/01 13:08 JAKET123 balak 50,000
22 21/01 13:08 IONRTWBSDU murni kecil 25,000
23 21/01 13:08 SILVI118 murni kecil 50,000
24 21/01 13:07 DWISESWO balak 100,000
25 21/01 13:06 CO123CO murni kecil 50,000
26 21/01 13:06 PANDI222 murni kecil 5,000
27 21/01 13:06 TEPAKKKKKK murni kecil 5,000
28 21/01 13:05 ZINGGA1 murni besar 50,000
29 21/01 13:04 SILVI118 murni besar 50,000
30 21/01 13:03 SNI39524 murni besar 50,000
31 21/01 13:02 UJANG003 murni kecil 25,000
32 21/01 13:02 MNAGER07 murni besar 50,000
33 21/01 13:02 QELTVZAB9M murni besar 50,000
34 21/01 13:01 NURLELLA balak 10,000
35 21/01 13:00 AKOP09 balak 50,000
36 21/01 13:00 ZACOKIL murni besar 50,000
37 21/01 13:00 ROAHOQQ murni kecil 5,000
38 21/01 12:59 WANGI128 murni kecil 5,000
39 21/01 12:59 PEZTRUK murni besar 25,000
40 21/01 12:59 WARDANA123 murni besar 25,000
41 21/01 12:59 JOK188 murni kecil 50,000
42 21/01 12:59 UTAM murni kecil 25,000
43 21/01 12:58 NDATS murni besar 50,000
44 21/01 12:58 CUCEPVUE7A lucky99 2,500
45 21/01 12:58 J4Y4K4Y4 murni kecil 50,000
46 21/01 12:58 SIBOLANGXM murni kecil 50,000
47 21/01 12:57 SAV1NG balak 100,000
48 21/01 12:57 TUNON99 murni kecil 5,000
49 21/01 12:57 SIKSAK01 murni kecil 25,000
50 21/01 12:56 MUJAHIDIN1 murni besar 5,000
Dewa.FM